Time;durP1;ratioP1;P1;durP2;ratioP2;P2;SDS_P1;SDS_P2;PMS_P1;PMS_P2;Temp;Humidity;BMP_temperature;BMP_pressure;BME280_temperature;BME280_humidity;BME280_pressure;Samples;Min_cycle;Max_cycle;Signal;HPM_P1;HPM_P2
2023/02/25 00:00:39;;;;;;;28.43;10.93;;;2.70;99.90;;;;;;4161581;28;20454;-76
2023/02/25 00:02:43;;;;;;;24.23;9.57;;;2.70;99.90;;;;;;4160635;28;20493;-76
2023/02/25 00:04:45;;;;;;;24.63;9.93;;;2.80;99.90;;;;;;4178980;28;20923;-76
2023/02/25 00:06:47;;;;;;;28.50;10.03;;;2.80;99.90;;;;;;4161470;28;20868;-76
2023/02/25 00:08:50;;;;;;;25.33;10.37;;;2.80;99.90;;;;;;4178101;28;20861;-76
2023/02/25 00:10:57;;;;;;;25.90;9.40;;;2.80;99.90;;;;;;4178033;28;20456;-76
2023/02/25 00:12:59;;;;;;;33.87;10.10;;;2.80;99.90;;;;;;4177721;28;20544;-76
2023/02/25 00:15:01;;;;;;;23.87;10.03;;;2.80;99.90;;;;;;4177240;28;20532;-75
2023/02/25 00:17:03;;;;;;;25.97;9.37;;;2.80;99.90;;;;;;4177467;28;20515;-75
2023/02/25 00:19:06;;;;;;;24.20;9.37;;;2.80;99.90;;;;;;4177100;28;20567;-76
2023/02/25 00:21:08;;;;;;;25.10;8.70;;;2.80;99.90;;;;;;4178028;28;20445;-75
2023/02/25 00:23:10;;;;;;;27.50;8.13;;;2.80;99.90;;;;;;4177149;28;20485;-76
2023/02/25 00:25:15;;;;;;;16.80;7.83;;;2.80;99.90;;;;;;4159359;28;20508;-76
2023/02/25 00:27:17;;;;;;;21.37;6.97;;;2.80;99.90;;;;;;4178008;28;20453;-76
2023/02/25 00:29:19;;;;;;;21.70;7.10;;;3.00;99.90;;;;;;4177330;28;21051;-76
2023/02/25 00:31:24;;;;;;;17.13;7.17;;;2.80;99.90;;;;;;4176896;28;20499;-75
2023/02/25 00:33:26;;;;;;;22.63;5.83;;;2.90;99.90;;;;;;4159706;28;20454;-75
2023/02/25 00:35:29;;;;;;;15.77;5.83;;;2.90;99.90;;;;;;4176831;28;20483;-76
2023/02/25 00:37:31;;;;;;;17.67;5.77;;;2.90;99.90;;;;;;4177428;28;20515;-75
2023/02/25 00:39:41;;;;;;;18.77;5.37;;;2.90;99.90;;;;;;4177815;28;20480;-75
2023/02/25 00:41:43;;;;;;;13.47;4.57;;;2.90;99.90;;;;;;4178460;28;20453;-76
2023/02/25 00:43:54;;;;;;;13.03;4.83;;;2.90;99.90;;;;;;4175927;28;20461;-75
2023/02/25 00:45:56;;;;;;;19.60;5.83;;;2.90;99.90;;;;;;4176922;28;21427;-75
2023/02/25 00:47:58;;;;;;;21.97;4.90;;;2.90;99.90;;;;;;4157829;28;20493;-76
2023/02/25 00:50:00;;;;;;;15.87;4.47;;;2.90;99.90;;;;;;4160208;28;20457;-75
2023/02/25 00:52:03;;;;;;;19.67;4.73;;;2.90;99.90;;;;;;4175320;28;20485;-76
2023/02/25 00:54:05;;;;;;;19.57;4.27;;;2.90;99.90;;;;;;4175007;28;20491;-75
2023/02/25 00:56:09;;;;;;;12.00;4.50;;;2.90;99.90;;;;;;4175781;28;20495;-75
2023/02/25 00:58:11;;;;;;;15.30;3.90;;;2.90;99.90;;;;;;4177369;28;20449;-76
2023/02/25 01:00:15;;;;;;;15.87;4.17;;;2.90;99.90;;;;;;4178388;28;20932;-76
2023/02/25 01:02:17;;;;;;;19.33;4.30;;;2.90;99.90;;;;;;4174084;28;20461;-76
2023/02/25 01:04:19;;;;;;;23.17;4.23;;;2.90;99.90;;;;;;4176716;28;20468;-76
2023/02/25 01:06:21;;;;;;;19.53;4.37;;;2.90;99.90;;;;;;4158116;28;20497;-76
2023/02/25 01:08:24;;;;;;;14.20;3.67;;;2.90;99.90;;;;;;4159515;28;20445;-75
2023/02/25 01:10:28;;;;;;;14.40;3.53;;;2.90;99.90;;;;;;4174700;28;20460;-76
2023/02/25 01:12:30;;;;;;;11.27;3.17;;;2.90;99.90;;;;;;4173769;28;21059;-76
2023/02/25 01:14:32;;;;;;;15.53;3.33;;;2.90;99.90;;;;;;4176506;28;20518;-75
2023/02/25 01:16:35;;;;;;;17.23;3.20;;;2.90;99.90;;;;;;4156303;28;20481;-75
2023/02/25 01:18:37;;;;;;;17.07;3.03;;;2.90;99.90;;;;;;4177089;28;20537;-76
2023/02/25 01:20:42;;;;;;;23.67;3.53;;;2.90;99.90;;;;;;4175680;28;20985;-75
2023/02/25 01:22:44;;;;;;;20.47;2.60;;;2.90;99.90;;;;;;4171931;28;20986;-75
2023/02/25 01:24:47;;;;;;;17.70;2.93;;;2.90;99.90;;;;;;4177378;28;20487;-75
2023/02/25 01:26:51;;;;;;;13.43;2.43;;;2.90;99.90;;;;;;4176483;28;20452;-76
2023/02/25 01:28:54;;;;;;;10.37;2.10;;;2.80;99.90;;;;;;4176123;28;20814;-75
2023/02/25 01:30:56;;;;;;;15.53;2.70;;;2.90;99.90;;;;;;4158252;28;20461;-75
2023/02/25 01:32:58;;;;;;;16.60;3.17;;;2.90;99.90;;;;;;4150978;28;20531;-75
2023/02/25 01:35:01;;;;;;;9.83;2.40;;;2.90;99.90;;;;;;4176721;28;20472;-76
2023/02/25 01:37:03;;;;;;;19.93;2.60;;;2.90;99.90;;;;;;4176652;28;20869;-75
2023/02/25 01:39:05;;;;;;;15.07;2.30;;;2.90;99.90;;;;;;4175846;28;20509;-75
2023/02/25 01:41:11;;;;;;;15.40;2.23;;;2.90;99.90;;;;;;4175856;28;20479;-75
2023/02/25 01:43:15;;;;;;;14.83;2.37;;;2.90;99.90;;;;;;4175405;28;20453;-75
2023/02/25 01:45:31;;;;;;;19.43;2.40;;;2.90;99.90;;;;;;4174141;28;20592;-75
2023/02/25 01:47:37;;;;;;;18.77;2.37;;;2.90;99.90;;;;;;4175327;28;20525;-76
2023/02/25 01:49:43;;;;;;;19.80;2.87;;;2.80;99.90;;;;;;4175217;28;20497;-76
2023/02/25 01:51:48;;;;;;;15.73;2.20;;;2.80;99.90;;;;;;4177166;28;20468;-76
2023/02/25 01:53:50;;;;;;;15.70;2.13;;;2.80;99.90;;;;;;4176575;28;20465;-76
2023/02/25 01:55:52;;;;;;;20.83;2.50;;;2.90;99.90;;;;;;4174919;28;20504;-76
2023/02/25 01:57:57;;;;;;;10.10;2.17;;;2.80;99.90;;;;;;4175575;28;20473;-76
2023/02/25 01:59:59;;;;;;;10.27;2.20;;;2.80;99.90;;;;;;4177626;28;20495;-75
2023/02/25 02:02:02;;;;;;;10.63;2.30;;;2.80;99.90;;;;;;4173796;28;20552;-76
2023/02/25 02:04:07;;;;;;;11.50;2.23;;;2.80;99.90;;;;;;4175733;28;21261;-75
2023/02/25 02:06:12;;;;;;;14.57;1.77;;;2.80;99.90;;;;;;4175017;28;20469;-75
2023/02/25 02:08:14;;;;;;;11.17;2.73;;;2.80;99.90;;;;;;4172381;28;20496;-75
2023/02/25 02:10:18;;;;;;;13.17;2.23;;;2.80;99.90;;;;;;4175655;28;21010;-76
2023/02/25 02:12:20;;;;;;;8.73;1.63;;;2.80;99.90;;;;;;4175858;28;20949;-75
2023/02/25 02:14:27;;;;;;;10.87;2.07;;;2.80;99.90;;;;;;4173855;28;20923;-76
2023/02/25 02:17:00;;;;;;;6.80;1.77;;;2.70;99.90;;;;;;4176483;28;20456;-76
2023/02/25 02:19:21;;;;;;;6.50;2.07;;;2.80;99.90;;;;;;4168887;28;20464;-76
2023/02/25 02:21:45;;;;;;;18.50;2.20;;;2.70;99.90;;;;;;4173747;28;20499;-76
2023/02/25 02:24:28;;;;;;;10.70;2.20;;;2.80;99.90;;;;;;4173265;28;20475;-76
2023/02/25 02:26:52;;;;;;;13.60;2.17;;;2.70;99.90;;;;;;4177045;28;20907;-76
2023/02/25 02:29:33;;;;;;;14.47;2.77;;;2.70;99.90;;;;;;4175060;28;20901;-76
2023/02/25 02:31:53;;;;;;;14.57;2.50;;;2.70;99.90;;;;;;4174344;28;20483;-76
2023/02/25 02:34:05;;;;;;;7.47;2.30;;;2.70;99.90;;;;;;4175911;28;20989;-76
2023/02/25 02:36:13;;;;;;;9.20;1.90;;;2.70;99.90;;;;;;4175835;28;20954;-76
2023/02/25 02:38:26;;;;;;;10.77;2.17;;;2.70;99.90;;;;;;4175338;28;20514;-75
2023/02/25 02:40:40;;;;;;;13.83;2.67;;;2.70;99.90;;;;;;4174398;28;20516;-76
2023/02/25 02:42:51;;;;;;;13.07;2.17;;;2.70;99.90;;;;;;4175789;28;20467;-75
2023/02/25 02:44:59;;;;;;;15.23;2.40;;;2.70;99.90;;;;;;4172401;28;20597;-76
2023/02/25 02:47:06;;;;;;;14.53;3.23;;;2.70;99.90;;;;;;4175815;28;21451;-76
2023/02/25 02:49:15;;;;;;;14.27;2.33;;;2.70;99.90;;;;;;4175990;28;20469;-76
2023/02/25 02:51:22;;;;;;;13.20;2.33;;;2.70;99.90;;;;;;4174302;28;20575;-74
2023/02/25 02:53:30;;;;;;;10.50;2.47;;;2.60;99.90;;;;;;4173975;28;20562;-76
2023/02/25 02:55:35;;;;;;;14.67;2.20;;;2.60;99.90;;;;;;4173308;28;20481;-76
2023/02/25 02:57:40;;;;;;;9.67;2.00;;;2.60;99.90;;;;;;4175503;28;20512;-76
2023/02/25 02:59:48;;;;;;;8.00;1.80;;;2.70;99.90;;;;;;4174882;28;20589;-76
2023/02/25 03:01:53;;;;;;;9.07;2.73;;;2.60;99.90;;;;;;4174078;28;20459;-76
2023/02/25 03:04:03;;;;;;;10.53;2.70;;;2.60;99.90;;;;;;4176264;28;20479;-76
2023/02/25 03:06:10;;;;;;;9.07;1.93;;;2.60;99.90;;;;;;4173358;28;20555;-76
2023/02/25 03:08:17;;;;;;;14.80;2.60;;;2.70;99.90;;;;;;4175407;28;20555;-76
2023/02/25 03:10:21;;;;;;;13.93;2.20;;;2.60;99.90;;;;;;4174024;28;21029;-76
2023/02/25 03:12:23;;;;;;;14.03;2.00;;;2.60;99.90;;;;;;4175629;28;20548;-76
2023/02/25 03:14:24;;;;;;;9.53;2.20;;;2.60;99.90;;;;;;4174515;28;20500;-76
2023/02/25 03:16:36;;;;;;;8.73;2.10;;;2.60;99.90;;;;;;4175988;28;20540;-76
2023/02/25 03:18:43;;;;;;;11.00;2.40;;;2.60;99.90;;;;;;4158767;28;20465;-76
2023/02/25 03:20:49;;;;;;;8.80;2.30;;;2.60;99.90;;;;;;4176197;28;20519;-77
2023/02/25 03:22:54;;;;;;;9.80;1.57;;;2.60;99.90;;;;;;4176336;28;21016;-76
2023/02/25 03:25:12;;;;;;;8.67;2.00;;;2.60;99.90;;;;;;4173488;28;20476;-76
2023/02/25 03:27:33;;;;;;;5.37;1.97;;;2.40;99.90;;;;;;4176705;28;20506;-76
2023/02/25 03:29:35;;;;;;;4.70;1.23;;;2.00;99.90;;;;;;4172522;28;20819;-75
2023/02/25 03:31:42;;;;;;;1.83;1.10;;;1.70;99.90;;;;;;4175964;28;20503;-77
2023/02/25 03:33:48;;;;;;;4.40;1.40;;;1.50;99.90;;;;;;4175389;28;20456;-77
2023/02/25 03:35:54;;;;;;;5.93;1.27;;;1.30;99.90;;;;;;4176334;28;20528;-76
2023/02/25 03:38:07;;;;;;;7.03;1.63;;;1.20;99.90;;;;;;4159403;28;20457;-77
2023/02/25 03:40:14;;;;;;;4.00;1.40;;;1.20;99.90;;;;;;4175355;28;20506;-77
2023/02/25 03:42:20;;;;;;;5.50;1.50;;;1.00;99.90;;;;;;4158156;28;20858;-77
2023/02/25 03:44:25;;;;;;;1.83;1.20;;;1.00;99.90;;;;;;4175967;28;20518;-76
2023/02/25 03:46:28;;;;;;;5.80;1.50;;;1.00;99.90;;;;;;4178680;28;20570;-76
2023/02/25 03:48:31;;;;;;;6.03;1.53;;;1.00;99.90;;;;;;4161410;28;20816;-76
2023/02/25 03:50:36;;;;;;;5.67;1.93;;;1.10;99.90;;;;;;4178801;28;20485;-74
2023/02/25 03:52:41;;;;;;;7.20;1.50;;;0.90;99.90;;;;;;4176177;28;20467;-77
2023/02/25 03:54:43;;;;;;;2.73;1.50;;;0.80;99.90;;;;;;4178429;28;20567;-77
2023/02/25 03:56:48;;;;;;;5.50;1.70;;;0.80;99.90;;;;;;4161569;28;20459;-77
2023/02/25 03:58:50;;;;;;;3.60;1.80;;;0.70;99.90;;;;;;4157606;28;20906;-77
2023/02/25 04:00:57;;;;;;;3.33;1.70;;;0.70;99.90;;;;;;4177420;28;20577;-77
2023/02/25 04:02:59;;;;;;;4.10;1.77;;;0.60;99.90;;;;;;4178733;28;20486;-76
2023/02/25 04:05:01;;;;;;;4.67;1.70;;;0.60;99.90;;;;;;4176993;28;20578;-77
2023/02/25 04:07:03;;;;;;;8.70;1.80;;;0.60;99.90;;;;;;4179855;28;20466;-77
2023/02/25 04:09:06;;;;;;;3.00;1.77;;;0.60;99.90;;;;;;4178997;28;20835;-77
2023/02/25 04:11:08;;;;;;;4.67;1.83;;;0.50;99.90;;;;;;4178335;28;20475;-77
2023/02/25 04:13:10;;;;;;;4.13;1.97;;;0.50;99.90;;;;;;4179994;28;20538;-77
2023/02/25 04:15:14;;;;;;;3.77;1.97;;;0.50;99.90;;;;;;4178794;28;20526;-77
2023/02/25 04:17:15;;;;;;;5.57;2.27;;;0.50;99.90;;;;;;4154917;28;20460;-77
2023/02/25 04:19:18;;;;;;;6.00;2.30;;;0.50;99.90;;;;;;4179909;28;20897;-77
2023/02/25 04:21:29;;;;;;;5.30;2.10;;;0.60;99.90;;;;;;4158798;28;20479;-77
2023/02/25 04:23:31;;;;;;;6.67;2.10;;;0.50;99.90;;;;;;4179801;28;20477;-77
2023/02/25 04:25:36;;;;;;;6.17;2.23;;;0.60;99.90;;;;;;4176207;28;20486;-77
2023/02/25 04:27:38;;;;;;;12.43;2.43;;;0.60;99.90;;;;;;4176522;28;20503;-77
2023/02/25 04:29:40;;;;;;;5.93;2.43;;;0.60;99.90;;;;;;4178250;28;20485;-77
2023/02/25 04:31:42;;;;;;;7.60;2.30;;;0.60;99.90;;;;;;4177473;28;20446;-77
2023/02/25 04:33:48;;;;;;;8.37;2.23;;;0.60;99.90;;;;;;4178221;28;20547;-77
2023/02/25 04:35:51;;;;;;;15.30;2.80;;;0.70;99.90;;;;;;4178208;28;20479;-76
2023/02/25 04:37:52;;;;;;;8.60;2.57;;;0.70;99.90;;;;;;4177015;28;20550;-76
2023/02/25 04:39:57;;;;;;;6.63;2.10;;;0.70;99.90;;;;;;4179825;28;20513;-77
2023/02/25 04:42:00;;;;;;;8.27;2.03;;;1.00;99.90;;;;;;4158386;28;21013;-77
2023/02/25 04:44:03;;;;;;;10.07;2.00;;;0.80;99.90;;;;;;4179047;28;20466;-76
2023/02/25 04:46:05;;;;;;;7.83;2.07;;;0.80;99.90;;;;;;4179149;28;20828;-77
2023/02/25 04:48:07;;;;;;;4.80;2.40;;;0.80;99.90;;;;;;4161520;28;20507;-77
2023/02/25 04:50:11;;;;;;;5.90;1.77;;;0.80;99.90;;;;;;4178627;28;20448;-77
2023/02/25 04:52:14;;;;;;;8.60;1.97;;;0.80;99.90;;;;;;4176880;28;20551;-77
2023/02/25 04:54:17;;;;;;;7.60;1.93;;;0.80;99.90;;;;;;4176939;28;20579;-77
2023/02/25 04:56:19;;;;;;;9.77;2.50;;;0.80;99.90;;;;;;4176729;28;20459;-77
2023/02/25 04:58:25;;;;;;;6.10;2.23;;;0.80;99.90;;;;;;4178021;28;21016;-77
2023/02/25 05:00:27;;;;;;;5.53;1.70;;;0.90;99.90;;;;;;4177936;28;20928;-77
2023/02/25 05:02:32;;;;;;;7.07;2.10;;;0.90;99.90;;;;;;4177512;28;20456;-77
2023/02/25 05:04:34;;;;;;;7.77;2.10;;;0.90;99.90;;;;;;4176391;28;20514;-77
2023/02/25 05:06:38;;;;;;;8.03;2.43;;;0.90;99.90;;;;;;4178052;28;20990;-77
2023/02/25 05:08:39;;;;;;;9.00;2.30;;;1.00;99.90;;;;;;4176229;28;20452;-77
2023/02/25 05:10:41;;;;;;;9.60;2.70;;;0.90;99.90;;;;;;4176205;28;20487;-77
2023/02/25 05:12:43;;;;;;;5.80;2.13;;;1.00;99.90;;;;;;4178826;28;20576;-77
2023/02/25 05:14:46;;;;;;;6.20;2.30;;;1.00;99.90;;;;;;4178019;28;20982;-77
2023/02/25 05:16:49;;;;;;;7.80;2.60;;;1.00;99.90;;;;;;4178765;28;20812;-77
2023/02/25 05:18:51;;;;;;;10.60;2.37;;;1.00;99.90;;;;;;4191504;28;20493;-77
2023/02/25 05:20:53;;;;;;;7.37;2.27;;;1.00;99.90;;;;;;4178365;28;20484;-77
2023/02/25 05:22:55;;;;;;;6.47;2.17;;;1.00;99.90;;;;;;4173589;28;20471;-77
2023/02/25 05:24:57;;;;;;;9.67;2.50;;;1.10;99.90;;;;;;4176050;28;20513;-77
2023/02/25 05:27:07;;;;;;;6.17;2.40;;;1.10;99.90;;;;;;4177257;28;20523;-77
2023/02/25 05:29:09;;;;;;;11.43;2.57;;;1.10;99.90;;;;;;4177978;28;20843;-77
2023/02/25 05:31:12;;;;;;;7.80;2.30;;;1.10;99.90;;;;;;4156078;28;20480;-77
2023/02/25 05:33:16;;;;;;;9.10;2.23;;;1.20;99.90;;;;;;4177053;28;20534;-77
2023/02/25 05:35:18;;;;;;;12.87;2.27;;;1.20;99.90;;;;;;4160396;28;20532;-77
2023/02/25 05:37:20;;;;;;;5.57;2.20;;;1.20;99.90;;;;;;4177017;28;20542;-77
2023/02/25 05:39:24;;;;;;;8.27;1.90;;;1.20;99.90;;;;;;4177030;28;20503;-77
2023/02/25 05:41:26;;;;;;;6.23;2.00;;;1.20;99.90;;;;;;4179141;28;20515;-77
2023/02/25 05:43:36;;;;;;;3.67;1.80;;;1.20;99.90;;;;;;4178698;28;20498;-77
2023/02/25 05:45:38;;;;;;;9.87;2.60;;;1.30;99.90;;;;;;4177034;28;20500;-78
2023/02/25 05:47:41;;;;;;;8.10;2.13;;;1.30;99.90;;;;;;4179618;28;20958;-77
2023/02/25 05:49:43;;;;;;;5.67;1.70;;;1.20;99.90;;;;;;4179019;28;20496;-77
2023/02/25 05:51:45;;;;;;;7.10;1.73;;;1.30;99.90;;;;;;4177954;28;20483;-77
2023/02/25 05:53:48;;;;;;;10.80;1.77;;;1.30;99.90;;;;;;4177846;28;20508;-77
2023/02/25 05:55:49;;;;;;;6.93;1.80;;;1.30;99.90;;;;;;4173483;28;20480;-77
2023/02/25 05:57:51;;;;;;;4.43;2.00;;;1.30;99.90;;;;;;4176769;28;20507;-77
2023/02/25 05:59:53;;;;;;;6.37;1.73;;;1.30;99.90;;;;;;4177448;28;20555;-77
2023/02/25 06:01:55;;;;;;;6.80;1.70;;;1.30;99.90;;;;;;4158737;28;20535;-77
2023/02/25 06:04:00;;;;;;;8.23;1.60;;;1.40;99.90;;;;;;4176361;28;20463;-77
2023/02/25 06:06:01;;;;;;;6.03;1.70;;;1.40;99.90;;;;;;4177994;28;20466;-77
2023/02/25 06:08:03;;;;;;;6.60;1.87;;;1.40;99.90;;;;;;4176477;28;20895;-77
2023/02/25 06:10:09;;;;;;;7.13;2.10;;;1.40;99.90;;;;;;4159229;28;20802;-77
2023/02/25 06:12:12;;;;;;;3.93;1.87;;;1.40;99.90;;;;;;4176385;28;20454;-77
2023/02/25 06:14:15;;;;;;;5.20;1.73;;;1.50;99.90;;;;;;4175191;28;20451;-77
2023/02/25 06:16:20;;;;;;;7.33;2.27;;;1.50;99.90;;;;;;4178578;28;20492;-77
2023/02/25 06:18:22;;;;;;;5.37;2.07;;;1.50;99.90;;;;;;4156560;28;20547;-77
2023/02/25 06:20:28;;;;;;;3.53;2.00;;;1.50;99.90;;;;;;4171005;28;20471;-77
2023/02/25 06:22:30;;;;;;;3.57;1.73;;;1.50;99.90;;;;;;4168322;28;20449;-77
2023/02/25 06:24:32;;;;;;;6.03;2.40;;;1.50;99.90;;;;;;4174396;28;20544;-77
2023/02/25 06:26:34;;;;;;;7.93;2.17;;;1.50;99.90;;;;;;4178177;28;20522;-77
2023/02/25 06:28:36;;;;;;;7.17;2.30;;;1.50;99.90;;;;;;4170577;28;20909;-77
2023/02/25 06:30:41;;;;;;;4.00;2.17;;;1.50;99.90;;;;;;4176187;28;20462;-77
2023/02/25 06:32:43;;;;;;;4.77;2.00;;;1.50;99.90;;;;;;4176704;28;20445;-77
2023/02/25 06:34:45;;;;;;;9.80;2.20;;;1.60;99.90;;;;;;4177099;28;20471;-77
2023/02/25 06:36:48;;;;;;;8.57;2.40;;;1.50;99.90;;;;;;4172502;28;20511;-77
2023/02/25 06:38:50;;;;;;;5.17;2.20;;;1.80;99.90;;;;;;4178550;28;20459;-78
2023/02/25 06:40:52;;;;;;;5.00;2.60;;;1.60;99.90;;;;;;4178428;28;20566;-77
2023/02/25 06:42:54;;;;;;;5.57;2.03;;;1.50;99.90;;;;;;4174586;28;20460;-77
2023/02/25 06:44:56;;;;;;;9.67;2.50;;;1.60;99.90;;;;;;4160544;28;20514;-77
2023/02/25 06:46:58;;;;;;;9.13;2.60;;;1.60;99.90;;;;;;4176828;28;20550;-77
2023/02/25 06:49:00;;;;;;;10.83;2.70;;;1.60;99.90;;;;;;4178092;28;20455;-77
2023/02/25 06:51:03;;;;;;;18.17;2.77;;;1.60;99.90;;;;;;4177157;28;20952;-77
2023/02/25 06:53:07;;;;;;;5.10;2.57;;;1.60;99.90;;;;;;4160437;28;20819;-77
2023/02/25 06:55:12;;;;;;;7.40;2.20;;;1.60;99.90;;;;;;4176211;28;20511;-77
2023/02/25 06:57:13;;;;;;;7.13;2.73;;;1.60;99.90;;;;;;4177507;28;20546;-77
2023/02/25 06:59:15;;;;;;;8.73;2.63;;;1.60;99.90;;;;;;4177058;28;20919;-77
2023/02/25 07:01:18;;;;;;;9.70;2.77;;;1.60;99.90;;;;;;4173717;28;20575;-77
2023/02/25 07:03:20;;;;;;;9.00;2.60;;;1.60;99.90;;;;;;4149333;28;20483;-77
2023/02/25 07:05:22;;;;;;;8.37;2.70;;;1.60;99.90;;;;;;4166348;28;20484;-77
2023/02/25 07:07:24;;;;;;;7.20;2.90;;;1.70;99.90;;;;;;4168641;28;20489;-76
2023/02/25 07:09:28;;;;;;;7.07;3.03;;;1.70;99.90;;;;;;4171532;28;20491;-75
2023/02/25 07:11:35;;;;;;;10.93;3.23;;;1.70;99.90;;;;;;4168957;28;20853;-75
2023/02/25 07:13:37;;;;;;;9.53;3.30;;;1.70;99.90;;;;;;4169421;28;20467;-76
2023/02/25 07:15:45;;;;;;;11.10;3.43;;;1.70;99.90;;;;;;4173123;28;20571;-77
2023/02/25 07:17:47;;;;;;;12.13;3.17;;;1.70;99.90;;;;;;4174133;28;20440;-77
2023/02/25 07:19:49;;;;;;;7.60;3.20;;;1.70;99.90;;;;;;4169871;28;20533;-78
2023/02/25 07:21:51;;;;;;;12.03;3.37;;;1.70;99.90;;;;;;4172337;28;20520;-78
2023/02/25 07:23:53;;;;;;;10.00;3.30;;;1.70;99.90;;;;;;4155057;28;20552;-78
2023/02/25 07:25:56;;;;;;;6.40;3.10;;;1.60;99.90;;;;;;4172208;28;20550;-78
2023/02/25 07:27:58;;;;;;;7.07;3.50;;;1.70;99.90;;;;;;4173443;28;20467;-78
2023/02/25 07:30:00;;;;;;;6.10;2.90;;;1.70;99.90;;;;;;4156824;28;20448;-78
2023/02/25 07:32:02;;;;;;;7.47;3.20;;;1.70;99.90;;;;;;4175947;28;20448;-78
2023/02/25 07:34:04;;;;;;;7.73;2.73;;;1.70;99.90;;;;;;4177381;28;20549;-78
2023/02/25 07:36:06;;;;;;;6.80;2.97;;;1.70;99.90;;;;;;4179218;28;20459;-77
2023/02/25 07:38:11;;;;;;;10.60;2.70;;;1.70;99.90;;;;;;4182369;28;20484;-77
2023/02/25 07:40:16;;;;;;;5.90;2.37;;;1.70;99.90;;;;;;4170191;28;20500;-78
2023/02/25 07:42:20;;;;;;;6.37;2.47;;;1.70;99.90;;;;;;4183939;28;20551;-83
2023/02/25 07:44:22;;;;;;;9.47;2.80;;;1.70;99.90;;;;;;4182253;28;20847;-78
2023/02/25 07:46:29;;;;;;;6.53;2.77;;;1.70;99.90;;;;;;4174612;28;20463;-78
2023/02/25 07:48:31;;;;;;;7.07;2.93;;;1.70;99.90;;;;;;4159874;28;20464;-78
2023/02/25 07:50:35;;;;;;;7.97;3.00;;;1.70;99.90;;;;;;4176196;28;20477;-78
2023/02/25 07:52:38;;;;;;;7.50;2.57;;;1.70;99.90;;;;;;4175227;28;20453;-79
2023/02/25 07:54:40;;;;;;;6.57;2.57;;;1.70;99.90;;;;;;4175197;28;20477;-79
2023/02/25 07:56:42;;;;;;;11.07;3.57;;;1.70;99.90;;;;;;4174912;28;20451;-79
2023/02/25 07:58:46;;;;;;;11.97;3.20;;;1.70;99.90;;;;;;4171539;28;20462;-79
2023/02/25 08:00:48;;;;;;;8.83;3.10;;;1.70;99.90;;;;;;4168464;28;20456;-78
2023/02/25 08:02:49;;;;;;;8.80;3.33;;;1.70;99.90;;;;;;4173173;28;20502;-79
2023/02/25 08:04:51;;;;;;;6.07;2.90;;;1.70;99.90;;;;;;4173789;28;21024;-79
2023/02/25 08:06:54;;;;;;;6.03;2.50;;;1.70;99.90;;;;;;4158987;28;20460;-80
2023/02/25 08:08:56;;;;;;;5.43;2.20;;;1.70;99.90;;;;;;4157600;28;20488;-79
2023/02/25 08:10:58;;;;;;;6.03;3.00;;;1.70;99.90;;;;;;4173623;28;20452;-78
2023/02/25 08:13:00;;;;;;;6.67;2.73;;;1.70;99.90;;;;;;4172832;28;20456;-79
2023/02/25 08:15:03;;;;;;;4.90;2.40;;;1.60;99.90;;;;;;4171816;28;20471;-79
2023/02/25 08:17:05;;;;;;;6.37;2.60;;;1.60;99.90;;;;;;4168624;28;21013;-79
2023/02/25 08:19:07;;;;;;;9.93;3.00;;;1.60;99.90;;;;;;4174159;28;20889;-79
2023/02/25 08:21:09;;;;;;;6.53;2.63;;;1.60;99.90;;;;;;4172273;28;21319;-78
2023/02/25 08:23:12;;;;;;;6.60;2.93;;;1.60;99.90;;;;;;4174940;28;21221;-78
2023/02/25 08:25:17;;;;;;;6.47;3.07;;;1.60;99.90;;;;;;4178936;28;20483;-78
2023/02/25 08:27:18;;;;;;;5.00;2.90;;;1.60;99.90;;;;;;4176750;28;20497;-78
2023/02/25 08:29:20;;;;;;;8.80;3.60;;;1.60;99.90;;;;;;4158070;28;20456;-81
2023/02/25 08:31:24;;;;;;;6.27;3.30;;;1.60;99.90;;;;;;4177719;28;20488;-79
2023/02/25 08:33:29;;;;;;;5.53;2.80;;;1.50;99.90;;;;;;4174011;28;21015;-77
2023/02/25 08:35:31;;;;;;;4.73;2.80;;;1.50;99.90;;;;;;4162160;28;20477;-78
2023/02/25 08:37:33;;;;;;;4.97;2.73;;;1.60;99.90;;;;;;4175162;28;20471;-79
2023/02/25 08:39:35;;;;;;;4.17;2.57;;;1.50;99.90;;;;;;4178284;28;20459;-78
2023/02/25 08:41:37;;;;;;;9.27;3.00;;;1.50;99.90;;;;;;4174475;28;20487;-78
2023/02/25 08:43:40;;;;;;;5.23;2.30;;;1.50;99.90;;;;;;4176072;28;20515;-78
2023/02/25 08:45:42;;;;;;;5.10;1.90;;;1.50;99.90;;;;;;4174610;28;20486;-77
2023/02/25 08:47:45;;;;;;;2.30;1.70;;;1.40;99.90;;;;;;4176059;28;20504;-77
2023/02/25 08:49:50;;;;;;;5.40;2.37;;;1.40;99.90;;;;;;4174498;28;20547;-77
2023/02/25 08:51:52;;;;;;;6.00;2.70;;;1.40;99.90;;;;;;4172698;28;20448;-78
2023/02/25 08:53:54;;;;;;;11.33;3.27;;;1.40;99.90;;;;;;4174730;28;20559;-77
2023/02/25 08:55:56;;;;;;;6.00;3.40;;;1.40;99.90;;;;;;4175775;28;20598;-78
2023/02/25 08:57:58;;;;;;;10.47;3.60;;;1.40;99.90;;;;;;4175824;28;20459;-77
2023/02/25 09:00:00;;;;;;;9.73;4.17;;;1.30;99.90;;;;;;4161237;28;20484;-78
2023/02/25 09:02:02;;;;;;;6.50;3.43;;;1.30;99.90;;;;;;4160718;28;20475;-78
2023/02/25 09:04:05;;;;;;;13.00;3.77;;;1.30;99.90;;;;;;4176028;28;20995;-77
2023/02/25 09:06:07;;;;;;;12.87;4.37;;;1.30;99.90;;;;;;4175814;28;20526;-77
2023/02/25 09:08:09;;;;;;;9.63;3.87;;;1.30;99.90;;;;;;4178267;28;21060;-77
2023/02/25 09:10:14;;;;;;;9.13;3.67;;;1.40;99.90;;;;;;4174016;28;20463;-78
2023/02/25 09:12:15;;;;;;;5.67;2.83;;;1.40;99.90;;;;;;4178863;28;20441;-77
2023/02/25 09:14:18;;;;;;;11.50;3.40;;;1.40;99.90;;;;;;4177269;28;20556;-78
2023/02/25 09:16:20;;;;;;;8.00;3.20;;;1.40;99.90;;;;;;4176854;28;20536;-77
2023/02/25 09:18:22;;;;;;;6.30;3.37;;;1.40;99.90;;;;;;4165030;28;20448;-77
2023/02/25 09:20:25;;;;;;;9.03;3.30;;;1.50;99.90;;;;;;4180453;28;20444;-78
2023/02/25 09:22:28;;;;;;;11.83;3.60;;;1.50;99.90;;;;;;4179282;28;20485;-78
2023/02/25 09:24:32;;;;;;;5.20;3.10;;;1.60;99.90;;;;;;4177435;28;20488;-78
2023/02/25 09:26:34;;;;;;;7.37;3.27;;;1.60;99.90;;;;;;4175163;28;20535;-77
2023/02/25 09:28:36;;;;;;;10.47;3.40;;;1.60;99.90;;;;;;4179205;28;20555;-78
2023/02/25 09:30:38;;;;;;;9.33;3.23;;;1.60;99.90;;;;;;4161542;28;20520;-78
2023/02/25 09:32:40;;;;;;;9.63;3.43;;;1.70;99.90;;;;;;4176953;28;20527;-78
2023/02/25 09:34:42;;;;;;;10.20;3.90;;;1.70;99.90;;;;;;4176139;28;20535;-78
2023/02/25 09:36:48;;;;;;;6.07;3.00;;;1.70;99.90;;;;;;4159716;28;20497;-78
2023/02/25 09:38:51;;;;;;;4.43;2.60;;;1.70;99.90;;;;;;4176501;28;20448;-75
2023/02/25 09:40:53;;;;;;;5.73;2.80;;;1.70;99.90;;;;;;4177277;28;20548;-76
2023/02/25 09:43:06;;;;;;;8.00;3.00;;;1.70;99.90;;;;;;4174328;28;20520;-76
2023/02/25 09:45:16;;;;;;;5.80;3.00;;;1.70;99.90;;;;;;4176744;28;20574;-76
2023/02/25 09:47:22;;;;;;;6.53;2.47;;;1.80;99.90;;;;;;4177569;28;20452;-75
2023/02/25 09:49:31;;;;;;;8.60;3.10;;;1.80;99.90;;;;;;4179057;28;20482;-75
2023/02/25 09:51:36;;;;;;;4.93;2.80;;;1.80;99.90;;;;;;4174180;28;21257;-79
2023/02/25 09:53:46;;;;;;;8.97;3.30;;;1.90;99.90;;;;;;4175834;28;20503;-75
2023/02/25 09:55:50;;;;;;;6.60;3.33;;;2.00;99.90;;;;;;4176417;28;20538;-75
2023/02/25 09:57:59;;;;;;;7.57;2.90;;;2.10;99.90;;;;;;4173684;28;20927;-76
2023/02/25 10:00:08;;;;;;;8.57;3.37;;;2.10;99.90;;;;;;4168465;28;20455;-76
2023/02/25 10:02:24;;;;;;;8.43;3.40;;;2.00;99.90;;;;;;4177408;28;20597;-76
2023/02/25 10:04:37;;;;;;;10.37;3.67;;;2.00;99.90;;;;;;4176640;28;20515;-75
2023/02/25 10:06:42;;;;;;;5.60;3.00;;;2.00;99.90;;;;;;4173513;28;20466;-77
2023/02/25 10:08:52;;;;;;;5.70;2.80;;;2.00;99.90;;;;;;4159209;28;20532;-76
2023/02/25 10:11:02;;;;;;;6.07;2.93;;;2.00;99.90;;;;;;4175607;28;20444;-77
2023/02/25 10:13:16;;;;;;;5.67;2.30;;;1.90;99.90;;;;;;4169441;28;20472;-76
2023/02/25 10:15:33;;;;;;;6.47;3.57;;;1.80;99.90;;;;;;4176403;28;20480;-76
2023/02/25 10:17:45;;;;;;;7.23;3.07;;;1.80;99.90;;;;;;4172683;28;20450;-75
2023/02/25 10:20:00;;;;;;;7.07;3.30;;;1.80;99.90;;;;;;4176967;28;20539;-75
2023/02/25 10:22:23;;;;;;;5.93;3.00;;;1.80;99.90;;;;;;4175766;28;20526;-77
2023/02/25 10:24:33;;;;;;;5.60;2.80;;;1.80;99.90;;;;;;4169904;28;20476;-77
2023/02/25 10:26:39;;;;;;;6.07;3.00;;;1.80;99.90;;;;;;4159283;28;20454;-77
2023/02/25 10:28:43;;;;;;;8.30;3.40;;;1.80;99.90;;;;;;4172766;28;20543;-77
2023/02/25 10:30:56;;;;;;;9.07;3.10;;;1.80;99.90;;;;;;4170841;28;20457;-77
2023/02/25 10:33:00;;;;;;;6.13;3.43;;;1.80;99.90;;;;;;4171635;28;20452;-77
2023/02/25 10:35:17;;;;;;;6.77;3.30;;;1.80;99.90;;;;;;4171063;28;20467;-77
2023/02/25 10:37:25;;;;;;;12.37;3.70;;;1.90;99.90;;;;;;4161794;28;20465;-77
2023/02/25 10:39:30;;;;;;;7.50;3.67;;;1.90;99.90;;;;;;4158092;28;20536;-77
2023/02/25 10:41:32;;;;;;;7.70;3.90;;;1.90;99.90;;;;;;4176007;28;20567;-77
2023/02/25 10:43:35;;;;;;;7.30;3.37;;;1.90;99.90;;;;;;4174640;28;20487;-77
2023/02/25 10:45:40;;;;;;;6.37;2.97;;;2.00;99.90;;;;;;4174156;28;20514;-77
2023/02/25 10:47:47;;;;;;;5.33;3.00;;;2.00;99.90;;;;;;4172292;28;20511;-77
2023/02/25 10:50:11;;;;;;;6.63;2.97;;;2.10;99.90;;;;;;4168320;28;20559;-77
2023/02/25 10:52:16;;;;;;;5.13;2.80;;;2.10;99.90;;;;;;4172868;28;20515;-77
2023/02/25 10:54:18;;;;;;;7.93;3.10;;;2.10;99.90;;;;;;4159207;28;21129;-76